createdAt,value
2018-04-02T00:00:45.244Z,83.23
2018-04-02T00:03:12.794Z,86.03
2018-04-02T00:05:41.497Z,78.40
2018-04-02T00:08:09.069Z,75.70
2018-04-02T00:10:36.675Z,87.53
2018-04-02T00:13:04.215Z,80.23
2018-04-02T00:15:31.763Z,74.23
2018-04-02T00:17:59.345Z,73.43
2018-04-02T00:20:26.925Z,72.40
2018-04-02T00:22:54.483Z,74.97
2018-04-02T00:25:22.052Z,83.80
2018-04-02T00:27:49.591Z,84.23
2018-04-02T00:30:17.571Z,82.13
2018-04-02T00:32:45.111Z,80.50
2018-04-02T00:35:12.673Z,74.20
2018-04-02T00:37:40.296Z,72.17
2018-04-02T00:40:07.845Z,73.40
2018-04-02T00:42:35.387Z,95.43
2018-04-02T00:45:02.989Z,71.57
2018-04-02T00:47:30.545Z,65.57
2018-04-02T00:49:58.111Z,66.40
2018-04-02T00:52:25.680Z,73.30
2018-04-02T00:54:53.230Z,68.40
2018-04-02T00:57:21.193Z,84.40
2018-04-02T00:59:48.807Z,73.30
2018-04-02T01:02:16.368Z,81.87
2018-04-02T01:04:43.947Z,84.17
2018-04-02T01:07:11.616Z,73.97
2018-04-02T01:09:39.218Z,88.13
2018-04-02T01:12:07.866Z,89.00
2018-04-02T01:14:35.423Z,77.50
2018-04-02T01:17:03.020Z,82.50
2018-04-02T01:19:30.558Z,83.97
2018-04-02T01:21:58.109Z,76.93
2018-04-02T01:24:25.684Z,84.23
2018-04-02T01:26:53.245Z,82.87
2018-04-02T01:29:20.818Z,86.17
2018-04-02T01:31:48.386Z,77.57
2018-04-02T01:34:15.992Z,78.17
2018-04-02T01:36:45.107Z,69.60
2018-04-02T01:39:12.647Z,76.00
2018-04-02T01:41:40.225Z,77.93
2018-04-02T01:44:07.794Z,89.20
2018-04-02T01:46:35.724Z,89.83
2018-04-02T01:49:03.273Z,79.77
2018-04-02T01:51:30.857Z,76.73
2018-04-02T01:53:58.854Z,97.63
2018-04-02T01:56:26.407Z,78.27
2018-04-02T01:58:53.951Z,73.60
2018-04-02T02:01:21.880Z,74.27
2018-04-02T02:03:49.450Z,76.47
2018-04-02T02:06:17.018Z,75.27
2018-04-02T02:08:44.633Z,71.07
2018-04-02T02:11:12.175Z,72.83
2018-04-02T02:13:39.738Z,85.53
2018-04-02T02:16:07.334Z,90.83
2018-04-02T02:18:34.882Z,84.83
2018-04-02T02:21:02.878Z,89.07
2018-04-02T02:23:30.436Z,84.43
2018-04-02T02:25:57.994Z,76.63
2018-04-02T02:28:25.595Z,85.57
2018-04-02T02:30:53.149Z,78.83
2018-04-02T02:33:20.690Z,78.17
2018-04-02T02:35:48.279Z,76.47
2018-04-02T02:38:15.866Z,90.23
2018-04-02T02:40:43.528Z,84.70
2018-04-02T02:43:11.090Z,87.07
2018-04-02T02:45:38.672Z,95.30
2018-04-02T02:48:06.709Z,88.60
2018-04-02T02:50:34.267Z,92.90
2018-04-02T02:53:01.840Z,99.20
2018-04-02T02:55:29.449Z,86.13
2018-04-02T02:57:57.036Z,91.90
2018-04-02T03:00:24.587Z,93.17
2018-04-02T03:02:52.165Z,98.73
2018-04-02T03:05:20.132Z,116.87
2018-04-02T03:07:47.705Z,114.60
2018-04-02T03:10:15.255Z,104.60
2018-04-02T03:12:42.853Z,112.43
2018-04-02T03:15:10.396Z,122.33
2018-04-02T03:17:37.961Z,116.03
2018-04-02T03:20:05.581Z,118.83
2018-04-02T03:22:33.144Z,98.47
2018-04-02T03:25:00.709Z,110.93
2018-04-02T03:27:28.303Z,126.67
2018-04-02T03:29:55.872Z,94.70
2018-04-02T03:32:23.432Z,113.40
2018-04-02T03:34:51.395Z,112.67
2018-04-02T03:37:18.966Z,136.10
2018-04-02T03:39:46.516Z,123.47
2018-04-02T03:42:14.108Z,125.17
2018-04-02T03:44:41.664Z,110.13
2018-04-02T03:47:09.248Z,114.00
2018-04-02T03:49:36.874Z,129.97
2018-04-02T03:52:04.457Z,109.63
2018-04-02T03:54:32.052Z,117.30
2018-04-02T03:57:00.024Z,128.67
2018-04-02T03:59:27.608Z,126.27
2018-04-02T04:01:55.163Z,135.67
2018-04-02T04:04:22.763Z,124.17
2018-04-02T04:06:50.336Z,120.63
2018-04-02T04:09:17.902Z,130.43
2018-04-02T04:11:45.493Z,119.53
2018-04-02T04:14:13.062Z,129.60
2018-04-02T04:16:41.055Z,129.20
2018-04-02T04:19:08.606Z,130.07
2018-04-02T04:21:36.186Z,139.07
2018-04-02T04:24:03.837Z,145.93
2018-04-02T04:26:31.414Z,143.10
2018-04-02T04:28:58.972Z,152.27
2018-04-02T04:31:26.678Z,149.30
2018-04-02T04:33:54.251Z,130.07
2018-04-02T04:36:21.812Z,154.43
2018-04-02T04:38:49.426Z,163.53
2018-04-02T04:41:16.969Z,167.00
2018-04-02T04:43:44.524Z,153.73
2018-04-02T04:46:12.109Z,146.33
2018-04-02T04:48:39.725Z,162.73
2018-04-02T04:51:07.333Z,129.97
2018-04-02T04:53:34.887Z,141.07
2018-04-02T04:56:02.503Z,148.67
2018-04-02T04:58:30.062Z,147.87
2018-04-02T05:00:57.612Z,144.33
2018-04-02T05:03:25.521Z,160.87
2018-04-02T05:05:53.091Z,158.93
2018-04-02T05:08:20.641Z,156.43
2018-04-02T05:10:48.590Z,171.37
2018-04-02T05:13:16.154Z,191.67
2018-04-02T05:15:43.713Z,167.93
2018-04-02T05:18:11.322Z,168.87
2018-04-02T05:20:38.864Z,171.83
2018-04-02T05:23:06.421Z,191.40
2018-04-02T05:25:34.032Z,183.83
2018-04-02T05:28:01.601Z,182.53
2018-04-02T05:30:29.156Z,209.17
2018-04-02T05:32:56.754Z,213.00
2018-04-02T05:35:24.342Z,239.17
2018-04-02T05:37:51.905Z,239.73
2018-04-02T05:40:19.478Z,269.03
2018-04-02T05:42:47.461Z,256.20
2018-04-02T05:45:15.064Z,278.60
2018-04-02T05:47:42.601Z,265.77
2018-04-02T05:50:10.220Z,256.67
2018-04-02T05:52:37.780Z,283.13
2018-04-02T05:55:05.352Z,285.40
2018-04-02T05:57:32.959Z,260.80
2018-04-02T06:00:00.530Z,235.43
2018-04-02T06:02:28.093Z,268.23
2018-04-02T06:04:56.033Z,262.23
2018-04-02T06:07:23.605Z,268.10
2018-04-02T06:09:51.163Z,247.37
2018-04-02T06:12:18.785Z,255.40
2018-04-02T06:14:46.342Z,247.73
2018-04-02T06:17:13.896Z,247.27
2018-04-02T06:19:41.500Z,226.17
2018-04-02T06:22:09.056Z,230.50
2018-04-02T06:24:36.599Z,228.90
2018-04-02T06:27:04.432Z,242.60
2018-04-02T06:29:32.004Z,245.73
2018-04-02T06:31:59.599Z,246.00
2018-04-02T06:34:27.197Z,231.17
2018-04-02T06:36:54.759Z,222.83
2018-04-02T06:39:22.361Z,206.67
2018-04-02T06:41:49.903Z,210.10
2018-04-02T06:44:17.517Z,238.23
2018-04-02T06:46:45.058Z,225.00
2018-04-02T06:49:12.621Z,225.03
2018-04-02T06:51:40.623Z,211.33
2018-04-02T06:54:08.587Z,209.30
2018-04-02T06:56:36.151Z,218.70
2018-04-02T06:59:04.173Z,215.50
2018-04-02T07:01:31.732Z,224.73
2018-04-02T07:03:59.300Z,235.57
2018-04-02T07:06:27.302Z,225.97
2018-04-02T07:08:54.866Z,223.53
2018-04-02T07:11:22.424Z,225.73
2018-04-02T07:13:50.016Z,224.27
2018-04-02T07:16:17.582Z,220.93
2018-04-02T07:18:45.613Z,210.50
2018-04-02T07:21:13.159Z,207.53
2018-04-02T07:23:40.721Z,216.53
2018-04-02T07:26:08.327Z,206.30
2018-04-02T07:28:35.894Z,207.57
2018-04-02T07:31:03.455Z,220.03
2018-04-02T07:33:31.075Z,215.67
2018-04-02T07:35:58.855Z,227.73
2018-04-02T07:38:26.405Z,224.50
2018-04-02T07:40:54.026Z,208.57
2018-04-02T07:43:21.580Z,228.27
2018-04-02T07:45:49.144Z,233.63
2018-04-02T07:48:16.772Z,249.80
2018-04-02T07:50:44.332Z,307.57
2018-04-02T07:53:11.900Z,349.47
2018-04-02T07:55:39.518Z,372.17
2018-04-02T07:58:07.132Z,376.77
2018-04-02T08:00:34.713Z,340.90
2018-04-02T08:03:02.272Z,320.67
2018-04-02T08:05:29.822Z,312.30
2018-04-02T08:07:57.412Z,281.03
2018-04-02T08:10:24.988Z,257.67
2018-04-02T08:12:52.568Z,241.90
2018-04-02T08:15:20.213Z,235.43
2018-04-02T08:17:47.779Z,227.30
2018-04-02T08:20:15.374Z,213.63
2018-04-02T08:22:42.977Z,228.40
2018-04-02T08:25:10.547Z,205.90
2018-04-02T08:27:38.097Z,224.67
2018-04-02T08:30:05.690Z,200.87
2018-04-02T08:32:33.298Z,207.90
2018-04-02T08:35:01.252Z,202.80
2018-04-02T08:37:28.795Z,202.70
2018-04-02T08:39:56.345Z,200.40
2018-04-02T08:42:23.919Z,184.10
2018-04-02T08:44:51.524Z,189.90
2018-04-02T08:47:19.084Z,186.73
2018-04-02T08:49:46.641Z,188.40
2018-04-02T08:52:14.237Z,197.13
2018-04-02T08:54:41.785Z,198.30
2018-04-02T08:57:09.334Z,183.13
2018-04-02T08:59:37.280Z,194.33
2018-04-02T09:02:04.832Z,168.97
2018-04-02T09:04:32.387Z,173.73
2018-04-02T09:07:00.333Z,191.53
2018-04-02T09:09:27.886Z,185.27
2018-04-02T09:11:55.431Z,168.50
2018-04-02T09:14:23.014Z,189.90
2018-04-02T09:16:50.643Z,187.53
2018-04-02T09:19:18.192Z,171.03
2018-04-02T09:21:45.732Z,173.13
2018-04-02T09:24:13.730Z,174.30
2018-04-02T09:26:41.305Z,167.20
2018-04-02T09:29:08.872Z,155.73
2018-04-02T09:31:36.445Z,166.87
2018-04-02T09:34:04.030Z,155.20
2018-04-02T09:36:32.008Z,157.33
2018-04-02T09:38:59.554Z,167.47
2018-04-02T09:41:27.128Z,163.40
2018-04-02T09:43:54.710Z,159.47
2018-04-02T09:46:22.269Z,152.63
2018-04-02T09:48:49.849Z,167.80
2018-04-02T09:51:17.423Z,172.83
2018-04-02T09:53:45.019Z,167.67
2018-04-02T09:56:12.569Z,166.23
2018-04-02T09:58:40.127Z,165.93
2018-04-02T10:01:07.716Z,178.37
2018-04-02T10:03:39.282Z,170.83
2018-04-02T10:06:06.881Z,168.97
2018-04-02T10:08:34.426Z,148.47
2018-04-02T10:11:02.011Z,158.97
2018-04-02T10:13:29.585Z,163.23
2018-04-02T10:15:57.132Z,173.83
2018-04-02T10:18:24.737Z,158.30
2018-04-02T10:20:52.288Z,169.37
2018-04-02T10:23:19.827Z,159.73
2018-04-02T10:25:47.442Z,172.27
2018-04-02T10:28:15.043Z,164.63
2018-04-02T10:30:42.584Z,162.57
2018-04-02T10:33:10.168Z,145.07
2018-04-02T10:35:37.724Z,150.37
2018-04-02T10:38:05.345Z,151.00
2018-04-02T10:40:32.894Z,150.73
2018-04-02T10:43:00.452Z,155.70
2018-04-02T10:45:28.042Z,139.17
2018-04-02T10:47:55.608Z,150.60
2018-04-02T10:50:23.206Z,138.73
2018-04-02T10:52:50.749Z,149.30
2018-04-02T10:55:18.300Z,145.63
2018-04-02T10:57:45.876Z,129.13
2018-04-02T11:00:13.443Z,131.70
2018-04-02T11:02:41.049Z,141.17
2018-04-02T11:05:08.596Z,117.97
2018-04-02T11:07:36.155Z,127.90
2018-04-02T11:10:03.752Z,113.30
2018-04-02T11:12:31.392Z,123.87
2018-04-02T11:14:58.958Z,105.13
2018-04-02T11:17:26.545Z,114.43
2018-04-02T11:19:54.116Z,117.67
2018-04-02T11:22:21.717Z,104.50
2018-04-02T11:24:49.282Z,108.10
2018-04-02T11:27:16.841Z,114.97
2018-04-02T11:29:44.577Z,98.30
2018-04-02T11:32:12.136Z,99.63
2018-04-02T11:34:39.688Z,103.23
2018-04-02T11:37:07.270Z,103.60
2018-04-02T11:39:34.825Z,96.30
2018-04-02T11:42:02.413Z,101.03
2018-04-02T11:44:29.959Z,98.00
2018-04-02T11:46:57.589Z,91.10
2018-04-02T11:49:25.140Z,81.33
2018-04-02T11:51:52.687Z,91.60
2018-04-02T11:54:20.305Z,84.13
2018-04-02T11:56:47.861Z,94.30
2018-04-02T11:59:15.477Z,91.23
2018-04-02T12:01:45.219Z,86.83
2018-04-02T12:04:12.849Z,86.53
2018-04-02T12:06:40.415Z,81.10
2018-04-02T12:09:08.413Z,66.67
2018-04-02T12:11:35.969Z,71.93
2018-04-02T12:14:03.559Z,70.93
2018-04-02T12:16:31.165Z,68.10
2018-04-02T12:18:58.723Z,75.10
2018-04-02T12:21:26.286Z,57.57
2018-04-02T12:23:53.874Z,43.83
2018-04-02T12:26:21.490Z,49.00
2018-04-02T12:28:49.125Z,47.87
2018-04-02T12:31:16.740Z,46.13
2018-04-02T12:33:44.349Z,45.90
2018-04-02T12:36:12.065Z,54.87
2018-04-02T12:38:39.664Z,53.17
2018-04-02T12:41:07.979Z,59.00
2018-04-02T12:43:35.525Z,53.97
2018-04-02T12:46:03.104Z,49.53
2018-04-02T12:48:31.061Z,56.27
2018-04-02T12:50:58.605Z,51.67
2018-04-02T12:53:26.152Z,62.50
2018-04-02T12:55:53.734Z,53.33
2018-04-02T12:58:21.465Z,54.60
2018-04-02T13:00:49.016Z,57.43
2018-04-02T13:03:16.577Z,56.20
2018-04-02T13:05:44.531Z,55.13
2018-04-02T13:08:12.088Z,42.00
2018-04-02T13:10:39.682Z,44.57
2018-04-02T13:13:07.286Z,47.77
2018-04-02T13:15:34.836Z,50.80
2018-04-02T13:18:02.397Z,47.03
2018-04-02T13:20:30.013Z,49.93
2018-04-02T13:22:57.564Z,48.70
2018-04-02T13:25:25.120Z,46.53
2018-04-02T13:27:52.713Z,52.07
2018-04-02T13:30:20.261Z,48.27
2018-04-02T13:32:47.819Z,45.50
2018-04-02T13:35:15.415Z,39.80
2018-04-02T13:37:42.982Z,40.87
2018-04-02T13:40:10.941Z,49.50
2018-04-02T13:42:38.711Z,41.17
2018-04-02T13:45:06.312Z,41.87
2018-04-02T13:47:33.879Z,42.77
2018-04-02T13:50:01.443Z,49.57
2018-04-02T13:52:29.026Z,33.13
2018-04-02T13:54:56.591Z,35.10
2018-04-02T13:57:24.191Z,26.23
2018-04-02T13:59:52.091Z,32.90
2018-04-02T14:02:19.631Z,33.03
2018-04-02T14:04:47.181Z,32.33
2018-04-02T14:07:14.769Z,25.53
2018-04-02T14:09:42.332Z,36.43
2018-04-02T14:12:09.927Z,58.90
2018-04-02T14:14:37.591Z,24.70
2018-04-02T14:17:05.166Z,22.00
2018-04-02T14:19:33.169Z,24.63
2018-04-02T14:22:00.711Z,18.50
2018-04-02T14:24:28.270Z,26.00
2018-04-02T14:26:55.859Z,29.53
2018-04-02T14:29:23.451Z,30.77
2018-04-02T14:31:51.063Z,19.60
2018-04-02T14:34:18.612Z,28.40
2018-04-02T14:36:46.171Z,28.70
2018-04-02T14:39:13.749Z,79.37
2018-04-02T14:41:41.297Z,27.83
2018-04-02T14:44:08.886Z,29.90
2018-04-02T14:46:36.446Z,128.83
2018-04-02T14:49:03.997Z,30.03
2018-04-02T14:51:31.625Z,40.43
2018-04-02T14:53:59.167Z,19.93
2018-04-02T14:56:26.717Z,24.73
2018-04-02T14:58:54.284Z,22.53
2018-04-02T15:01:21.851Z,25.77
2018-04-02T15:03:49.461Z,21.73
2018-04-02T15:06:17.022Z,36.00
2018-04-02T15:08:44.568Z,19.83
2018-04-02T15:11:12.306Z,21.43
2018-04-02T15:13:39.869Z,20.33
2018-04-02T15:16:07.421Z,22.73
2018-04-02T15:18:35.006Z,19.13
2018-04-02T15:21:02.577Z,17.13
2018-04-02T15:23:30.106Z,15.80
2018-04-02T15:25:57.704Z,20.23
2018-04-02T15:28:25.257Z,19.00
2018-04-02T15:30:52.823Z,21.00
2018-04-02T15:33:20.400Z,28.30
2018-04-02T15:35:47.940Z,18.80
2018-04-02T15:38:15.916Z,18.83
2018-04-02T15:40:43.472Z,19.70
2018-04-02T15:43:11.023Z,21.83
2018-04-02T15:45:38.640Z,28.43
2018-04-02T15:48:06.188Z,15.30
2018-04-02T15:50:33.752Z,13.97
2018-04-02T15:53:02.275Z,22.10
2018-04-02T15:55:29.881Z,20.07
2018-04-02T15:57:57.418Z,22.87
2018-04-02T16:00:24.950Z,20.33
2018-04-02T16:02:52.561Z,17.00
2018-04-02T16:05:20.103Z,20.80
2018-04-02T16:07:47.768Z,18.43
2018-04-02T16:10:15.691Z,33.00
2018-04-02T16:12:43.236Z,17.73
2018-04-02T16:15:10.788Z,21.10
2018-04-02T16:17:38.359Z,19.93
2018-04-02T16:20:05.921Z,17.37
2018-04-02T16:22:33.515Z,16.17
2018-04-02T16:25:01.070Z,17.50
2018-04-02T16:27:28.628Z,20.63
2018-04-02T16:29:56.200Z,14.93
2018-04-02T16:32:24.179Z,24.73
2018-04-02T16:34:51.715Z,18.90
2018-04-02T16:37:19.274Z,21.37
2018-04-02T16:39:46.855Z,18.40
2018-04-02T16:42:14.763Z,20.87
2018-04-02T16:44:42.330Z,17.63
2018-04-02T16:47:09.863Z,25.50
2018-04-02T16:49:37.434Z,17.33
2018-04-02T16:52:04.985Z,15.90
2018-04-02T16:54:32.600Z,16.27
2018-04-02T16:57:00.175Z,18.93
2018-04-02T16:59:27.925Z,18.40
2018-04-02T17:01:55.464Z,15.43
2018-04-02T17:04:23.017Z,18.00
2018-04-02T17:06:50.639Z,14.70
2018-04-02T17:09:18.180Z,22.70
2018-04-02T17:11:45.738Z,15.33
2018-04-02T17:14:13.335Z,15.23
2018-04-02T17:16:40.893Z,18.77
2018-04-02T17:19:08.456Z,10.60
2018-04-02T17:21:36.076Z,13.97
2018-04-02T17:24:03.636Z,12.30
2018-04-02T17:26:31.190Z,18.73
2018-04-02T17:28:58.754Z,16.63
2018-04-02T17:31:27.931Z,13.33
2018-04-02T17:33:55.505Z,38.37
2018-04-02T17:36:23.053Z,20.83
2018-04-02T17:38:50.670Z,20.03
2018-04-02T17:41:18.229Z,15.50
2018-04-02T17:43:45.788Z,23.07
2018-04-02T17:46:13.412Z,17.37
2018-04-02T17:48:40.964Z,20.03
2018-04-02T17:51:08.513Z,16.47
2018-04-02T17:53:36.093Z,15.43
2018-04-02T17:56:03.735Z,14.17
2018-04-02T17:58:31.256Z,13.80
2018-04-02T18:00:58.897Z,16.27
2018-04-02T18:03:26.457Z,25.87
2018-04-02T18:05:53.991Z,16.67
2018-04-02T18:08:21.669Z,16.00
2018-04-02T18:10:49.269Z,16.73
2018-04-02T18:13:16.832Z,18.50
2018-04-02T18:15:44.371Z,14.43
2018-04-02T18:18:11.944Z,13.97
2018-04-02T18:20:39.499Z,15.37
2018-04-02T18:23:07.097Z,15.80
2018-04-02T18:25:34.644Z,20.13
2018-04-02T18:28:02.242Z,22.67
2018-04-02T18:30:29.868Z,23.00
2018-04-02T18:32:57.419Z,13.37
2018-04-02T18:35:25.019Z,25.07
2018-04-02T18:37:52.957Z,18.33
2018-04-02T18:40:20.597Z,19.93
2018-04-02T18:42:48.269Z,16.03
2018-04-02T18:45:16.026Z,18.07
2018-04-02T18:47:43.635Z,16.10
2018-04-02T18:50:11.240Z,13.87
2018-04-02T18:52:38.974Z,17.50
2018-04-02T18:55:06.724Z,15.07
2018-04-02T18:57:34.668Z,12.27
2018-04-02T19:00:02.243Z,17.83
2018-04-02T19:02:29.799Z,20.33
2018-04-02T19:04:57.428Z,16.83
2018-04-02T19:07:24.974Z,20.47
2018-04-02T19:09:52.894Z,15.83
2018-04-02T19:12:20.921Z,14.63
2018-04-02T19:14:48.673Z,14.20
2018-04-02T19:17:16.266Z,15.13
2018-04-02T19:19:44.126Z,16.23
2018-04-02T19:22:11.978Z,17.73
2018-04-02T19:24:39.779Z,19.87
2018-04-02T19:27:07.358Z,17.20
2018-04-02T19:29:35.233Z,17.87
2018-04-02T19:32:03.096Z,22.50
2018-04-02T19:34:30.674Z,12.37
2018-04-02T19:36:58.466Z,17.63
2018-04-02T19:39:26.250Z,27.00
2018-04-02T19:41:53.985Z,25.30
2018-04-02T19:44:21.588Z,24.37
2018-04-02T19:46:49.345Z,24.27
2018-04-02T19:49:17.077Z,25.20
2018-04-02T19:51:44.829Z,25.50
2018-04-02T19:54:12.669Z,25.90
2018-04-02T19:56:40.219Z,18.20
2018-04-02T19:59:07.777Z,21.53
2018-04-02T20:01:35.367Z,21.37
2018-04-02T20:04:02.911Z,24.27
2018-04-02T20:06:30.513Z,25.83
2018-04-02T20:08:58.175Z,29.13
2018-04-02T20:11:25.715Z,20.83
2018-04-02T20:13:53.293Z,19.07
2018-04-02T20:16:20.899Z,17.10
2018-04-02T20:18:48.441Z,20.37
2018-04-02T20:21:15.987Z,18.57
2018-04-02T20:23:43.939Z,27.00
2018-04-02T20:26:11.490Z,20.93
2018-04-02T20:28:39.057Z,18.97
2018-04-02T20:31:06.684Z,16.30
2018-04-02T20:33:34.233Z,19.13
2018-04-02T20:36:01.766Z,18.13
2018-04-02T20:38:29.356Z,16.23
2018-04-02T20:40:56.933Z,19.47
2018-04-02T20:43:24.556Z,24.30
2018-04-02T20:45:52.118Z,18.90
2018-04-02T20:48:19.669Z,19.23
2018-04-02T20:50:47.281Z,15.63
2018-04-02T20:53:14.820Z,16.90
2018-04-02T20:55:42.360Z,16.77
2018-04-02T20:58:09.976Z,18.60
2018-04-02T21:00:37.507Z,15.20
2018-04-02T21:03:05.034Z,15.73
2018-04-02T21:05:32.663Z,14.57
2018-04-02T21:08:00.217Z,15.60
2018-04-02T21:10:27.763Z,20.70
2018-04-02T21:12:55.361Z,14.93
2018-04-02T21:15:22.915Z,15.77
2018-04-02T21:17:50.464Z,15.23
2018-04-02T21:20:18.061Z,20.87
2018-04-02T21:22:45.634Z,16.47
2018-04-02T21:25:13.167Z,16.00
2018-04-02T21:27:40.750Z,17.50
2018-04-02T21:30:08.297Z,15.23
2018-04-02T21:32:36.284Z,16.83
2018-04-02T21:35:03.833Z,16.63
2018-04-02T21:37:31.372Z,15.17
2018-04-02T21:39:58.991Z,19.20
2018-04-02T21:42:26.541Z,20.00
2018-04-02T21:44:54.090Z,14.80
2018-04-02T21:47:21.692Z,15.63
2018-04-02T21:49:49.236Z,19.60
2018-04-02T21:52:16.785Z,13.47
2018-04-02T21:54:44.371Z,18.43
2018-04-02T21:57:11.932Z,16.67
2018-04-02T21:59:39.627Z,16.70
2018-04-02T22:02:07.205Z,17.60
2018-04-02T22:04:34.753Z,19.23
2018-04-02T22:07:04.369Z,16.10
2018-04-02T22:09:31.952Z,20.13
2018-04-02T22:11:59.504Z,18.30
2018-04-02T22:14:27.107Z,21.13
2018-04-02T22:16:54.653Z,15.97
2018-04-02T22:19:22.201Z,17.20
2018-04-02T22:21:50.587Z,16.30
2018-04-02T22:24:23.988Z,19.30
2018-04-02T22:26:52.737Z,19.70
2018-04-02T22:29:22.173Z,16.77
2018-04-02T22:31:49.729Z,19.87
2018-04-02T22:34:17.801Z,15.63
2018-04-02T22:36:45.372Z,11.80
2018-04-02T22:39:12.947Z,12.63
2018-04-02T22:41:40.531Z,16.53
2018-04-02T22:44:08.067Z,13.10
2018-04-02T22:46:35.612Z,17.40
2018-04-02T22:49:03.215Z,8.87
2018-04-02T22:51:30.764Z,10.40
2018-04-02T22:53:58.316Z,8.80
2018-04-02T22:56:26.285Z,11.47
2018-04-02T22:58:53.996Z,14.07
2018-04-02T23:01:21.531Z,10.23
2018-04-02T23:03:49.440Z,9.97
2018-04-02T23:06:16.976Z,13.30
2018-04-02T23:08:44.519Z,10.93
2018-04-02T23:11:12.122Z,12.30
2018-04-02T23:13:39.676Z,12.53
2018-04-02T23:16:07.221Z,13.50
2018-04-02T23:18:34.800Z,10.47
2018-04-02T23:21:02.330Z,10.50
2018-04-02T23:23:29.894Z,17.00
2018-04-02T23:25:57.447Z,13.70
2018-04-02T23:28:25.048Z,10.10
2018-04-02T23:30:52.575Z,13.17
2018-04-02T23:33:20.129Z,11.90
2018-04-02T23:35:47.737Z,10.80
2018-04-02T23:38:15.348Z,15.83
2018-04-02T23:40:42.904Z,11.50
2018-04-02T23:43:10.468Z,12.33
2018-04-02T23:45:38.038Z,13.27
2018-04-02T23:48:05.649Z,12.77
2018-04-02T23:50:33.210Z,14.60
2018-04-02T23:53:00.744Z,12.80
2018-04-02T23:55:28.344Z,12.60
2018-04-02T23:57:55.878Z,15.20
